sensor_id;sensor_type;location;lat;lon;timestamp;P1;durP1;ratioP1;P2;durP2;ratioP2
74753;SDS011;63271;53.340;-6.260;2023-12-20T07:02:36;7.10;;;1.35;;
74753;SDS011;63271;53.340;-6.260;2023-12-20T07:05:04;6.25;;;1.30;;
74753;SDS011;63271;53.340;-6.260;2023-12-20T07:07:32;3.63;;;1.25;;
74753;SDS011;63271;53.340;-6.260;2023-12-20T07:10:00;2.55;;;1.17;;
74753;SDS011;63271;53.340;-6.260;2023-12-20T07:12:25;7.85;;;1.45;;
74753;SDS011;63271;53.340;-6.260;2023-12-20T07:14:53;4.25;;;1.30;;
74753;SDS011;63271;53.340;-6.260;2023-12-20T07:17:18;5.38;;;1.30;;
74753;SDS011;63271;53.340;-6.260;2023-12-20T07:19:44;4.18;;;1.48;;
74753;SDS011;63271;53.340;-6.260;2023-12-20T07:22:10;6.65;;;1.55;;
74753;SDS011;63271;53.340;-6.260;2023-12-20T07:24:41;6.13;;;1.70;;
74753;SDS011;63271;53.340;-6.260;2023-12-20T07:27:08;4.40;;;1.17;;
74753;SDS011;63271;53.340;-6.260;2023-12-20T07:29:34;4.63;;;1.50;;
74753;SDS011;63271;53.340;-6.260;2023-12-20T07:32:02;3.25;;;0.98;;
74753;SDS011;63271;53.340;-6.260;2023-12-20T07:34:27;4.60;;;1.23;;
74753;SDS011;63271;53.340;-6.260;2023-12-20T07:36:52;3.40;;;1.25;;
74753;SDS011;63271;53.340;-6.260;2023-12-20T07:39:20;5.05;;;1.30;;
74753;SDS011;63271;53.340;-6.260;2023-12-20T07:41:48;3.38;;;0.95;;
74753;SDS011;63271;53.340;-6.260;2023-12-20T07:44:16;2.50;;;1.15;;
74753;SDS011;63271;53.340;-6.260;2023-12-20T07:46:41;4.40;;;1.25;;
74753;SDS011;63271;53.340;-6.260;2023-12-20T07:49:09;5.10;;;1.38;;
74753;SDS011;63271;53.340;-6.260;2023-12-20T07:51:36;6.82;;;1.60;;
74753;SDS011;63271;53.340;-6.260;2023-12-20T07:56:33;5.45;;;1.38;;
74753;SDS011;63271;53.340;-6.260;2023-12-20T07:59:03;4.75;;;1.20;;
74753;SDS011;63271;53.340;-6.260;2023-12-20T08:01:29;3.92;;;1.20;;
74753;SDS011;63271;53.340;-6.260;2023-12-20T08:03:57;4.32;;;1.05;;
74753;SDS011;63271;53.340;-6.260;2023-12-20T08:06:22;5.55;;;1.10;;
74753;SDS011;63271;53.340;-6.260;2023-12-20T08:08:50;5.40;;;1.38;;
74753;SDS011;63271;53.340;-6.260;2023-12-20T08:11:18;4.88;;;1.50;;
74753;SDS011;63271;53.340;-6.260;2023-12-20T08:13:46;5.57;;;1.17;;
74753;SDS011;63271;53.340;-6.260;2023-12-20T08:16:11;5.45;;;1.30;;
74753;SDS011;63271;53.340;-6.260;2023-12-20T08:18:38;5.80;;;1.38;;
74753;SDS011;63271;53.340;-6.260;2023-12-20T08:21:04;5.75;;;1.63;;
74753;SDS011;63271;53.340;-6.260;2023-12-20T08:23:32;4.72;;;1.50;;
74753;SDS011;63271;53.340;-6.260;2023-12-20T08:25:58;5.05;;;1.40;;
74753;SDS011;63271;53.340;-6.260;2023-12-20T08:28:25;4.13;;;1.30;;
74753;SDS011;63271;53.340;-6.260;2023-12-20T08:30:58;5.72;;;1.77;;
74753;SDS011;63271;53.340;-6.260;2023-12-20T08:33:26;4.88;;;1.08;;
74753;SDS011;63271;53.340;-6.260;2023-12-20T08:35:54;4.20;;;1.40;;
74753;SDS011;63271;53.340;-6.260;2023-12-20T08:38:22;10.52;;;1.88;;
74753;SDS011;63271;53.340;-6.260;2023-12-20T08:40:50;8.55;;;2.20;;
74753;SDS011;63271;53.340;-6.260;2023-12-20T08:43:18;6.85;;;1.42;;
74753;SDS011;63271;53.340;-6.260;2023-12-20T08:45:46;8.60;;;1.60;;
74753;SDS011;63271;53.340;-6.260;2023-12-20T08:48:13;6.43;;;1.65;;
74753;SDS011;63271;53.340;-6.260;2023-12-20T08:50:39;5.32;;;1.30;;
74753;SDS011;63271;53.340;-6.260;2023-12-20T08:53:04;6.78;;;1.65;;
74753;SDS011;63271;53.340;-6.260;2023-12-20T08:55:32;7.72;;;1.83;;
74753;SDS011;63271;53.340;-6.260;2023-12-20T08:58:00;6.60;;;1.60;;
74753;SDS011;63271;53.340;-6.260;2023-12-20T09:00:30;8.00;;;1.70;;
74753;SDS011;63271;53.340;-6.260;2023-12-20T09:02:55;5.80;;;1.83;;
74753;SDS011;63271;53.340;-6.260;2023-12-20T09:05:21;7.25;;;1.98;;
74753;SDS011;63271;53.340;-6.260;2023-12-20T09:07:47;7.20;;;1.92;;
74753;SDS011;63271;53.340;-6.260;2023-12-20T09:10:12;6.10;;;1.77;;
74753;SDS011;63271;53.340;-6.260;2023-12-20T09:12:42;12.48;;;1.90;;
74753;SDS011;63271;53.340;-6.260;2023-12-20T09:15:14;6.60;;;1.50;;
74753;SDS011;63271;53.340;-6.260;2023-12-20T09:17:42;8.23;;;2.10;;
74753;SDS011;63271;53.340;-6.260;2023-12-20T09:20:11;7.47;;;1.65;;
74753;SDS011;63271;53.340;-6.260;2023-12-20T09:22:38;8.45;;;1.90;;
74753;SDS011;63271;53.340;-6.260;2023-12-20T09:25:04;8.82;;;1.65;;
74753;SDS011;63271;53.340;-6.260;2023-12-20T09:27:30;5.88;;;1.60;;
74753;SDS011;63271;53.340;-6.260;2023-12-20T09:29:58;10.38;;;2.47;;
74753;SDS011;63271;53.340;-6.260;2023-12-20T09:32:26;10.43;;;1.83;;
74753;SDS011;63271;53.340;-6.260;2023-12-20T09:34:57;7.75;;;1.92;;
74753;SDS011;63271;53.340;-6.260;2023-12-20T09:37:27;5.45;;;1.83;;
74753;SDS011;63271;53.340;-6.260;2023-12-20T09:39:53;7.10;;;1.95;;
74753;SDS011;63271;53.340;-6.260;2023-12-20T09:42:21;6.07;;;1.73;;
74753;SDS011;63271;53.340;-6.260;2023-12-20T09:44:54;6.70;;;1.83;;
74753;SDS011;63271;53.340;-6.260;2023-12-20T09:47:25;7.68;;;2.10;;
74753;SDS011;63271;53.340;-6.260;2023-12-20T09:49:54;11.05;;;2.28;;
74753;SDS011;63271;53.340;-6.260;2023-12-20T09:52:19;9.13;;;2.28;;
74753;SDS011;63271;53.340;-6.260;2023-12-20T09:54:45;8.65;;;1.90;;
74753;SDS011;63271;53.340;-6.260;2023-12-20T09:57:18;11.82;;;3.22;;
74753;SDS011;63271;53.340;-6.260;2023-12-20T09:59:47;6.43;;;1.70;;
74753;SDS011;63271;53.340;-6.260;2023-12-20T10:02:13;10.88;;;2.38;;
74753;SDS011;63271;53.340;-6.260;2023-12-20T10:04:47;11.57;;;2.22;;
74753;SDS011;63271;53.340;-6.260;2023-12-20T10:07:17;9.55;;;2.55;;
74753;SDS011;63271;53.340;-6.260;2023-12-20T10:09:42;9.70;;;2.00;;
74753;SDS011;63271;53.340;-6.260;2023-12-20T10:12:09;12.57;;;2.78;;
74753;SDS011;63271;53.340;-6.260;2023-12-20T10:14:38;11.48;;;2.40;;
74753;SDS011;63271;53.340;-6.260;2023-12-20T10:17:09;8.50;;;2.22;;
74753;SDS011;63271;53.340;-6.260;2023-12-20T10:19:37;9.63;;;2.45;;
74753;SDS011;63271;53.340;-6.260;2023-12-20T10:22:03;13.13;;;2.38;;
74753;SDS011;63271;53.340;-6.260;2023-12-20T10:24:29;13.07;;;2.67;;
74753;SDS011;63271;53.340;-6.260;2023-12-20T10:29:31;9.60;;;2.75;;
74753;SDS011;63271;53.340;-6.260;2023-12-20T10:31:58;11.57;;;2.50;;
74753;SDS011;63271;53.340;-6.260;2023-12-20T10:34:23;11.60;;;2.72;;
74753;SDS011;63271;53.340;-6.260;2023-12-20T10:36:54;8.32;;;2.13;;
74753;SDS011;63271;53.340;-6.260;2023-12-20T10:39:22;9.98;;;2.05;;
74753;SDS011;63271;53.340;-6.260;2023-12-20T10:41:50;16.58;;;2.92;;
74753;SDS011;63271;53.340;-6.260;2023-12-20T10:44:18;10.93;;;2.50;;
74753;SDS011;63271;53.340;-6.260;2023-12-20T10:46:46;12.20;;;2.80;;
74753;SDS011;63271;53.340;-6.260;2023-12-20T10:49:18;7.97;;;2.22;;
74753;SDS011;63271;53.340;-6.260;2023-12-20T10:51:46;12.38;;;2.55;;
74753;SDS011;63271;53.340;-6.260;2023-12-20T10:54:12;10.25;;;2.72;;
74753;SDS011;63271;53.340;-6.260;2023-12-20T10:56:38;10.65;;;2.50;;
74753;SDS011;63271;53.340;-6.260;2023-12-20T10:59:06;10.98;;;2.13;;
74753;SDS011;63271;53.340;-6.260;2023-12-20T11:01:35;10.38;;;2.92;;
74753;SDS011;63271;53.340;-6.260;2023-12-20T11:04:03;11.35;;;2.65;;
74753;SDS011;63271;53.340;-6.260;2023-12-20T11:09:19;11.70;;;2.75;;
74753;SDS011;63271;53.340;-6.260;2023-12-20T11:14:41;13.20;;;2.85;;
74753;SDS011;63271;53.340;-6.260;2023-12-20T11:17:12;10.40;;;3.03;;
74753;SDS011;63271;53.340;-6.260;2023-12-20T11:22:26;10.85;;;2.80;;
74753;SDS011;63271;53.340;-6.260;2023-12-20T11:24:57;11.10;;;3.00;;
74753;SDS011;63271;53.340;-6.260;2023-12-20T11:27:24;15.02;;;3.35;;
74753;SDS011;63271;53.340;-6.260;2023-12-20T11:29:54;14.18;;;2.90;;
74753;SDS011;63271;53.340;-6.260;2023-12-20T11:34:50;12.93;;;2.75;;
74753;SDS011;63271;53.340;-6.260;2023-12-20T11:37:16;13.48;;;2.92;;
74753;SDS011;63271;53.340;-6.260;2023-12-20T11:39:56;14.88;;;3.17;;
74753;SDS011;63271;53.340;-6.260;2023-12-20T11:42:27;12.15;;;2.92;;
74753;SDS011;63271;53.340;-6.260;2023-12-20T11:44:53;18.42;;;3.80;;
74753;SDS011;63271;53.340;-6.260;2023-12-20T11:47:20;12.32;;;3.10;;
74753;SDS011;63271;53.340;-6.260;2023-12-20T11:49:48;13.45;;;3.33;;
74753;SDS011;63271;53.340;-6.260;2023-12-20T11:52:16;12.13;;;3.05;;
74753;SDS011;63271;53.340;-6.260;2023-12-20T11:54:41;16.25;;;4.15;;
74753;SDS011;63271;53.340;-6.260;2023-12-20T11:57:07;13.02;;;3.35;;
74753;SDS011;63271;53.340;-6.260;2023-12-20T11:59:32;11.45;;;3.30;;
74753;SDS011;63271;53.340;-6.260;2023-12-20T12:01:58;14.20;;;2.90;;
74753;SDS011;63271;53.340;-6.260;2023-12-20T12:04:26;14.55;;;3.00;;
74753;SDS011;63271;53.340;-6.260;2023-12-20T12:06:56;12.82;;;3.30;;
74753;SDS011;63271;53.340;-6.260;2023-12-20T12:09:22;14.05;;;3.22;;
74753;SDS011;63271;53.340;-6.260;2023-12-20T12:11:47;12.98;;;3.50;;
74753;SDS011;63271;53.340;-6.260;2023-12-20T12:14:15;15.40;;;3.40;;
74753;SDS011;63271;53.340;-6.260;2023-12-20T12:16:41;13.23;;;3.47;;
74753;SDS011;63271;53.340;-6.260;2023-12-20T12:19:07;13.80;;;3.45;;
74753;SDS011;63271;53.340;-6.260;2023-12-20T12:21:47;11.50;;;3.03;;
74753;SDS011;63271;53.340;-6.260;2023-12-20T12:24:16;12.93;;;3.60;;
74753;SDS011;63271;53.340;-6.260;2023-12-20T12:26:57;17.88;;;4.43;;
74753;SDS011;63271;53.340;-6.260;2023-12-20T12:29:23;12.98;;;3.05;;
74753;SDS011;63271;53.340;-6.260;2023-12-20T12:31:49;17.95;;;3.50;;
74753;SDS011;63271;53.340;-6.260;2023-12-20T12:34:15;17.50;;;3.97;;
74753;SDS011;63271;53.340;-6.260;2023-12-20T12:36:41;14.15;;;3.50;;
74753;SDS011;63271;53.340;-6.260;2023-12-20T12:39:12;14.70;;;3.55;;
74753;SDS011;63271;53.340;-6.260;2023-12-20T12:41:37;12.82;;;2.90;;
74753;SDS011;63271;53.340;-6.260;2023-12-20T12:44:04;14.75;;;3.67;;
74753;SDS011;63271;53.340;-6.260;2023-12-20T12:46:34;13.65;;;3.47;;
74753;SDS011;63271;53.340;-6.260;2023-12-20T12:49:00;12.27;;;3.25;;
74753;SDS011;63271;53.340;-6.260;2023-12-20T12:51:25;15.30;;;3.80;;
74753;SDS011;63271;53.340;-6.260;2023-12-20T12:53:53;13.15;;;3.40;;
74753;SDS011;63271;53.340;-6.260;2023-12-20T12:56:21;13.00;;;3.60;;
74753;SDS011;63271;53.340;-6.260;2023-12-20T12:58:51;13.27;;;4.28;;
74753;SDS011;63271;53.340;-6.260;2023-12-20T13:01:17;14.80;;;3.45;;
74753;SDS011;63271;53.340;-6.260;2023-12-20T13:03:44;14.57;;;3.75;;
74753;SDS011;63271;53.340;-6.260;2023-12-20T13:06:10;13.82;;;3.55;;
74753;SDS011;63271;53.340;-6.260;2023-12-20T13:08:38;11.32;;;3.25;;
74753;SDS011;63271;53.340;-6.260;2023-12-20T13:11:03;14.07;;;3.75;;
74753;SDS011;63271;53.340;-6.260;2023-12-20T13:13:33;14.73;;;3.53;;
74753;SDS011;63271;53.340;-6.260;2023-12-20T13:16:04;15.18;;;3.35;;
74753;SDS011;63271;53.340;-6.260;2023-12-20T13:18:35;12.93;;;3.05;;
74753;SDS011;63271;53.340;-6.260;2023-12-20T13:21:00;11.98;;;3.28;;
74753;SDS011;63271;53.340;-6.260;2023-12-20T13:23:28;15.32;;;3.83;;
74753;SDS011;63271;53.340;-6.260;2023-12-20T13:25:58;15.32;;;3.65;;
74753;SDS011;63271;53.340;-6.260;2023-12-20T13:28:28;17.17;;;3.83;;
74753;SDS011;63271;53.340;-6.260;2023-12-20T13:30:56;12.70;;;3.10;;
74753;SDS011;63271;53.340;-6.260;2023-12-20T13:33:24;13.48;;;3.47;;
74753;SDS011;63271;53.340;-6.260;2023-12-20T13:35:49;12.70;;;3.00;;
74753;SDS011;63271;53.340;-6.260;2023-12-20T13:38:15;13.00;;;3.15;;
74753;SDS011;63271;53.340;-6.260;2023-12-20T13:40:40;13.63;;;3.15;;
74753;SDS011;63271;53.340;-6.260;2023-12-20T13:43:10;12.65;;;3.50;;
74753;SDS011;63271;53.340;-6.260;2023-12-20T13:45:40;9.63;;;3.00;;
74753;SDS011;63271;53.340;-6.260;2023-12-20T13:48:07;14.68;;;3.25;;
74753;SDS011;63271;53.340;-6.260;2023-12-20T13:50:33;13.65;;;3.22;;
74753;SDS011;63271;53.340;-6.260;2023-12-20T13:53:06;12.95;;;3.60;;
74753;SDS011;63271;53.340;-6.260;2023-12-20T13:55:36;11.43;;;3.38;;
74753;SDS011;63271;53.340;-6.260;2023-12-20T13:58:04;13.15;;;3.22;;
74753;SDS011;63271;53.340;-6.260;2023-12-20T14:00:32;13.55;;;3.35;;
74753;SDS011;63271;53.340;-6.260;2023-12-20T14:02:57;13.38;;;3.45;;
74753;SDS011;63271;53.340;-6.260;2023-12-20T14:05:27;9.25;;;2.60;;
74753;SDS011;63271;53.340;-6.260;2023-12-20T14:07:58;15.98;;;3.65;;
74753;SDS011;63271;53.340;-6.260;2023-12-20T14:10:24;16.52;;;3.97;;
74753;SDS011;63271;53.340;-6.260;2023-12-20T14:12:54;16.27;;;3.80;;
74753;SDS011;63271;53.340;-6.260;2023-12-20T14:15:20;10.80;;;3.15;;
74753;SDS011;63271;53.340;-6.260;2023-12-20T14:17:45;14.73;;;3.40;;
74753;SDS011;63271;53.340;-6.260;2023-12-20T14:20:16;12.90;;;3.85;;
74753;SDS011;63271;53.340;-6.260;2023-12-20T14:22:41;11.15;;;3.35;;
74753;SDS011;63271;53.340;-6.260;2023-12-20T14:25:15;10.52;;;2.97;;
74753;SDS011;63271;53.340;-6.260;2023-12-20T14:27:45;12.55;;;3.35;;
74753;SDS011;63271;53.340;-6.260;2023-12-20T14:30:13;12.60;;;3.50;;
74753;SDS011;63271;53.340;-6.260;2023-12-20T14:32:44;12.73;;;3.70;;
74753;SDS011;63271;53.340;-6.260;2023-12-20T14:35:15;11.30;;;3.33;;
74753;SDS011;63271;53.340;-6.260;2023-12-20T14:37:44;21.65;;;4.82;;
74753;SDS011;63271;53.340;-6.260;2023-12-20T14:40:12;17.20;;;3.08;;
74753;SDS011;63271;53.340;-6.260;2023-12-20T14:42:43;20.50;;;3.75;;
74753;SDS011;63271;53.340;-6.260;2023-12-20T14:45:11;20.17;;;4.13;;
74753;SDS011;63271;53.340;-6.260;2023-12-20T14:47:41;23.30;;;3.40;;
74753;SDS011;63271;53.340;-6.260;2023-12-20T14:50:07;23.25;;;3.85;;
74753;SDS011;63271;53.340;-6.260;2023-12-20T14:52:35;25.95;;;3.70;;
74753;SDS011;63271;53.340;-6.260;2023-12-20T14:55:04;19.10;;;3.58;;
74753;SDS011;63271;53.340;-6.260;2023-12-20T14:57:34;15.38;;;2.88;;
74753;SDS011;63271;53.340;-6.260;2023-12-20T15:00:01;14.98;;;3.30;;
74753;SDS011;63271;53.340;-6.260;2023-12-20T15:02:30;13.98;;;3.28;;
74753;SDS011;63271;53.340;-6.260;2023-12-20T15:04:58;18.90;;;3.60;;
74753;SDS011;63271;53.340;-6.260;2023-12-20T15:07:26;16.05;;;3.05;;
74753;SDS011;63271;53.340;-6.260;2023-12-20T15:09:56;12.98;;;2.78;;
74753;SDS011;63271;53.340;-6.260;2023-12-20T15:12:21;15.32;;;2.97;;
74753;SDS011;63271;53.340;-6.260;2023-12-20T15:14:48;10.82;;;2.90;;
74753;SDS011;63271;53.340;-6.260;2023-12-20T15:17:15;12.77;;;2.90;;
74753;SDS011;63271;53.340;-6.260;2023-12-20T15:19:41;13.93;;;3.33;;
74753;SDS011;63271;53.340;-6.260;2023-12-20T15:22:11;15.20;;;3.30;;
74753;SDS011;63271;53.340;-6.260;2023-12-20T15:24:37;9.27;;;2.92;;
74753;SDS011;63271;53.340;-6.260;2023-12-20T15:27:05;12.73;;;3.00;;
74753;SDS011;63271;53.340;-6.260;2023-12-20T15:29:35;13.85;;;3.53;;
74753;SDS011;63271;53.340;-6.260;2023-12-20T15:32:03;11.98;;;3.28;;
74753;SDS011;63271;53.340;-6.260;2023-12-20T15:34:29;7.75;;;2.53;;
74753;SDS011;63271;53.340;-6.260;2023-12-20T15:36:59;9.38;;;2.72;;
74753;SDS011;63271;53.340;-6.260;2023-12-20T15:41:55;11.32;;;2.75;;
74753;SDS011;63271;53.340;-6.260;2023-12-20T15:44:20;16.33;;;2.88;;
74753;SDS011;63271;53.340;-6.260;2023-12-20T15:46:50;10.35;;;2.58;;
74753;SDS011;63271;53.340;-6.260;2023-12-20T15:49:20;12.90;;;2.90;;
74753;SDS011;63271;53.340;-6.260;2023-12-20T15:51:46;9.15;;;2.13;;
74753;SDS011;63271;53.340;-6.260;2023-12-20T15:54:14;8.10;;;2.67;;
74753;SDS011;63271;53.340;-6.260;2023-12-20T15:56:47;8.85;;;2.50;;
74753;SDS011;63271;53.340;-6.260;2023-12-20T15:59:13;9.52;;;2.38;;
74753;SDS011;63271;53.340;-6.260;2023-12-20T16:01:40;8.02;;;2.30;;
74753;SDS011;63271;53.340;-6.260;2023-12-20T16:04:08;11.82;;;2.72;;
74753;SDS011;63271;53.340;-6.260;2023-12-20T16:06:36;9.55;;;2.65;;
74753;SDS011;63271;53.340;-6.260;2023-12-20T16:09:02;7.65;;;2.38;;
74753;SDS011;63271;53.340;-6.260;2023-12-20T16:11:27;8.23;;;2.63;;
74753;SDS011;63271;53.340;-6.260;2023-12-20T16:13:55;9.60;;;2.33;;
74753;SDS011;63271;53.340;-6.260;2023-12-20T16:16:20;8.25;;;2.28;;
74753;SDS011;63271;53.340;-6.260;2023-12-20T16:18:46;8.18;;;2.75;;
74753;SDS011;63271;53.340;-6.260;2023-12-20T16:21:13;6.93;;;1.92;;
74753;SDS011;63271;53.340;-6.260;2023-12-20T16:23:39;7.72;;;2.40;;
74753;SDS011;63271;53.340;-6.260;2023-12-20T16:26:09;8.88;;;3.00;;
74753;SDS011;63271;53.340;-6.260;2023-12-20T16:28:37;9.25;;;2.47;;
74753;SDS011;63271;53.340;-6.260;2023-12-20T16:31:04;10.43;;;2.80;;
74753;SDS011;63271;53.340;-6.260;2023-12-20T16:33:35;13.10;;;2.80;;
74753;SDS011;63271;53.340;-6.260;2023-12-20T16:36:05;10.80;;;2.38;;
74753;SDS011;63271;53.340;-6.260;2023-12-20T16:38:31;9.23;;;2.13;;
74753;SDS011;63271;53.340;-6.260;2023-12-20T16:40:58;9.52;;;2.58;;
74753;SDS011;63271;53.340;-6.260;2023-12-20T16:43:26;6.15;;;1.95;;
74753;SDS011;63271;53.340;-6.260;2023-12-20T16:45:51;5.03;;;1.90;;
74753;SDS011;63271;53.340;-6.260;2023-12-20T16:48:19;6.00;;;2.10;;
74753;SDS011;63271;53.340;-6.260;2023-12-20T16:50:47;10.45;;;2.60;;
74753;SDS011;63271;53.340;-6.260;2023-12-20T16:53:12;9.40;;;2.17;;
74753;SDS011;63271;53.340;-6.260;2023-12-20T16:55:40;5.22;;;2.00;;
74753;SDS011;63271;53.340;-6.260;2023-12-20T16:58:06;8.30;;;2.22;;
74753;SDS011;63271;53.340;-6.260;2023-12-20T17:00:31;6.30;;;1.98;;
74753;SDS011;63271;53.340;-6.260;2023-12-20T17:02:57;7.90;;;2.50;;
74753;SDS011;63271;53.340;-6.260;2023-12-20T17:05:25;14.32;;;2.75;;
74753;SDS011;63271;53.340;-6.260;2023-12-20T17:07:53;5.93;;;2.20;;
74753;SDS011;63271;53.340;-6.260;2023-12-20T17:10:23;7.97;;;2.25;;
74753;SDS011;63271;53.340;-6.260;2023-12-20T17:12:48;5.55;;;1.73;;
74753;SDS011;63271;53.340;-6.260;2023-12-20T17:15:16;7.20;;;2.38;;
74753;SDS011;63271;53.340;-6.260;2023-12-20T17:17:41;4.45;;;1.80;;
74753;SDS011;63271;53.340;-6.260;2023-12-20T17:20:09;5.85;;;1.90;;
74753;SDS011;63271;53.340;-6.260;2023-12-20T17:22:37;6.72;;;2.25;;
74753;SDS011;63271;53.340;-6.260;2023-12-20T17:25:03;7.32;;;1.85;;
74753;SDS011;63271;53.340;-6.260;2023-12-20T17:27:31;5.60;;;2.08;;
74753;SDS011;63271;53.340;-6.260;2023-12-20T17:30:00;5.18;;;1.52;;
74753;SDS011;63271;53.340;-6.260;2023-12-20T17:32:25;5.15;;;1.58;;
74753;SDS011;63271;53.340;-6.260;2023-12-20T17:34:53;5.55;;;2.17;;
74753;SDS011;63271;53.340;-6.260;2023-12-20T17:37:18;4.95;;;1.50;;
74753;SDS011;63271;53.340;-6.260;2023-12-20T17:39:48;3.25;;;1.42;;
74753;SDS011;63271;53.340;-6.260;2023-12-20T17:42:13;4.38;;;1.75;;
74753;SDS011;63271;53.340;-6.260;2023-12-20T17:44:43;4.25;;;1.55;;
74753;SDS011;63271;53.340;-6.260;2023-12-20T17:47:11;5.80;;;1.58;;
74753;SDS011;63271;53.340;-6.260;2023-12-20T17:49:37;5.90;;;1.85;;
74753;SDS011;63271;53.340;-6.260;2023-12-20T17:52:05;6.03;;;1.75;;
74753;SDS011;63271;53.340;-6.260;2023-12-20T17:54:33;6.15;;;1.77;;
74753;SDS011;63271;53.340;-6.260;2023-12-20T17:56:59;4.22;;;1.65;;
74753;SDS011;63271;53.340;-6.260;2023-12-20T17:59:25;6.65;;;1.65;;
74753;SDS011;63271;53.340;-6.260;2023-12-20T18:01:53;4.10;;;1.40;;
74753;SDS011;63271;53.340;-6.260;2023-12-20T18:04:18;4.47;;;1.80;;
74753;SDS011;63271;53.340;-6.260;2023-12-20T18:06:48;5.88;;;1.85;;
74753;SDS011;63271;53.340;-6.260;2023-12-20T18:09:16;6.90;;;2.17;;
74753;SDS011;63271;53.340;-6.260;2023-12-20T18:11:44;5.93;;;1.60;;
74753;SDS011;63271;53.340;-6.260;2023-12-20T18:14:12;4.70;;;1.50;;
74753;SDS011;63271;53.340;-6.260;2023-12-20T18:16:41;4.88;;;1.40;;
74753;SDS011;63271;53.340;-6.260;2023-12-20T18:19:06;4.10;;;1.60;;
74753;SDS011;63271;53.340;-6.260;2023-12-20T18:21:31;3.40;;;1.40;;
74753;SDS011;63271;53.340;-6.260;2023-12-20T18:23:59;4.43;;;1.50;;
74753;SDS011;63271;53.340;-6.260;2023-12-20T18:26:26;4.10;;;1.30;;
74753;SDS011;63271;53.340;-6.260;2023-12-20T18:29:00;2.70;;;1.20;;
74753;SDS011;63271;53.340;-6.260;2023-12-20T18:31:28;4.20;;;1.42;;
74753;SDS011;63271;53.340;-6.260;2023-12-20T18:33:56;2.60;;;1.40;;
74753;SDS011;63271;53.340;-6.260;2023-12-20T18:36:24;6.15;;;1.60;;
74753;SDS011;63271;53.340;-6.260;2023-12-20T18:38:50;4.40;;;1.50;;
74753;SDS011;63271;53.340;-6.260;2023-12-20T18:41:20;3.53;;;1.58;;
74753;SDS011;63271;53.340;-6.260;2023-12-20T18:43:47;3.80;;;1.50;;
74753;SDS011;63271;53.340;-6.260;2023-12-20T18:46:15;4.43;;;1.75;;
74753;SDS011;63271;53.340;-6.260;2023-12-20T18:48:49;3.03;;;1.45;;
74753;SDS011;63271;53.340;-6.260;2023-12-20T18:51:18;3.50;;;1.48;;
74753;SDS011;63271;53.340;-6.260;2023-12-20T18:53:43;5.18;;;1.33;;
74753;SDS011;63271;53.340;-6.260;2023-12-20T18:56:09;3.83;;;1.75;;
74753;SDS011;63271;53.340;-6.260;2023-12-20T18:58:36;2.83;;;1.30;;
74753;SDS011;63271;53.340;-6.260;2023-12-20T19:01:02;3.05;;;1.40;;
74753;SDS011;63271;53.340;-6.260;2023-12-20T19:03:31;4.32;;;1.50;;
74753;SDS011;63271;53.340;-6.260;2023-12-20T19:05:58;5.57;;;1.42;;
74753;SDS011;63271;53.340;-6.260;2023-12-20T19:08:25;4.65;;;1.67;;
74753;SDS011;63271;53.340;-6.260;2023-12-20T19:10:51;3.08;;;1.13;;
74753;SDS011;63271;53.340;-6.260;2023-12-20T19:13:21;3.03;;;1.30;;
74753;SDS011;63271;53.340;-6.260;2023-12-20T19:16:05;2.85;;;1.10;;
74753;SDS011;63271;53.340;-6.260;2023-12-20T19:18:30;3.20;;;1.23;;
74753;SDS011;63271;53.340;-6.260;2023-12-20T19:20:59;3.85;;;1.60;;
74753;SDS011;63271;53.340;-6.260;2023-12-20T19:23:24;4.57;;;1.52;;
74753;SDS011;63271;53.340;-6.260;2023-12-20T19:25:55;2.53;;;1.13;;
74753;SDS011;63271;53.340;-6.260;2023-12-20T19:28:24;6.93;;;1.50;;
74753;SDS011;63271;53.340;-6.260;2023-12-20T19:30:49;4.57;;;1.67;;
74753;SDS011;63271;53.340;-6.260;2023-12-20T19:33:17;3.67;;;1.48;;
74753;SDS011;63271;53.340;-6.260;2023-12-20T19:35:47;4.88;;;1.23;;
74753;SDS011;63271;53.340;-6.260;2023-12-20T19:38:12;3.00;;;1.33;;
74753;SDS011;63271;53.340;-6.260;2023-12-20T19:40:37;2.65;;;1.38;;
74753;SDS011;63271;53.340;-6.260;2023-12-20T19:43:05;3.53;;;1.55;;
74753;SDS011;63271;53.340;-6.260;2023-12-20T19:45:33;3.53;;;1.50;;
74753;SDS011;63271;53.340;-6.260;2023-12-20T19:48:03;2.92;;;1.27;;
74753;SDS011;63271;53.340;-6.260;2023-12-20T19:50:29;4.40;;;1.30;;
74753;SDS011;63271;53.340;-6.260;2023-12-20T19:52:54;3.72;;;1.60;;
74753;SDS011;63271;53.340;-6.260;2023-12-20T19:55:22;3.80;;;1.40;;
74753;SDS011;63271;53.340;-6.260;2023-12-20T19:57:50;4.07;;;1.40;;
74753;SDS011;63271;53.340;-6.260;2023-12-20T20:00:19;3.17;;;1.65;;
